Strona główna
METAR-TAF:

METAR-TAF

Lotnisko :

Diepholz, Niemcy

Szerokość geograficzna: 52-35N, Długość geograficzna: 008-21E, wysokość: 39 m

Aktualna obserwacja pogody

Raport powstał 8 godziny i 25 minut temu, godzina 14:20 UTC
Wiatr 8 kt od południe
Temperatura 4°C
Wilgotność 87%
Ciśnienie 1021 hPa
Widzialność 10 km lub więcej
Mało chmury na wysokości 1700 ft
Przerywane chmury na wysokości 18000 ft

METAR: ETND 101420Z 18008KT 9999 FEW017 BKN180 04/02 Q1021 BLU

czas: 23:45 (22:45 UTC)

Prognoza

Raport powstał 8 godziny i 13 minut temu, godzina 14:32 UTC
Prognoza ważna od 10 godzina 14 UTC do 10 godzina 21 UTC
Wiatr 7 kt od południowy zachód
Widzialność 10 km lub więcej
Mało chmury na wysokości 5000 ft
Stopniowe zmiany
od 10 godzina 14 UTC do 10 godzina 15 UTC
Wiatr 10 kt od południowo-południowy zachód
Widzialność: 1445 m
Rozproszone chmury na wysokości 5000 ft
Przerywane chmury na wysokości 15000 ft

TAF: ETND 101432Z 1014/1021 22007KT 9999 NSW FEW050 BECMG 1014/1015 20010KT 9999 NSW SCT050 BKN150 CANCEL 1445 BY ETGL

Obserwacja i prognoza pogody dla ponad 4000 lotnisk (raport METAR i TAF).

Dostępne stacje oznaczono żółtymi i czerwonymi punktami na mapie.

Najedź kursorem aby zobaczyć nazwę stacji.

Kliknij aby zobaczyć obserwacje i prognozy pogody.

Aby zmienić mapę: kliknij na zielony przycisk z czarnym krzyżykiem, aby powiększyć; na zielony przycisk z myślnikiem, aby pomniejszyć; na zielone strzałki, aby przejść do map sąsiednich.


METAR-TAF: